Terminal Aerodrome Forecast
Issued by NWS

Current Version | Previous Version | Text Only | Print | Product List | Glossary On
Versions: 1 2 3 4 5 6 7 8 9 10 11 12
000
FTUS46 KEKA 292300
TAFUKI
TAF
KUKI 292340Z 3000/3024 26012G17KT P6SM FEW060 SCT180
     FM300200 VRB05KT P6SM SCT180=

USA.gov is the U.S. government's official web portal to all federal, state and local government web resources and services.